Time;durP1;ratioP1;P1;durP2;ratioP2;P2;SDS_P1;SDS_P2;PMS_P1;PMS_P2;Temp;Humidity;BMP_temperature;BMP_pressure;BME280_temperature;BME280_humidity;BME280_pressure;Samples;Min_cycle;Max_cycle;Signal;HPM_P1;HPM_P2
2022/09/02 00:01:43;;;;;;;3.70;1.70;;;17.10;99.90;;;;;;5006235;28;20503;-76
2022/09/02 00:04:15;;;;;;;2.50;1.50;;;17.00;99.90;;;;;;4999337;28;20018;-76
2022/09/02 00:06:43;;;;;;;3.90;1.75;;;17.00;99.90;;;;;;5000115;28;20034;-77
2022/09/02 00:09:12;;;;;;;2.85;1.40;;;17.10;99.90;;;;;;5004216;28;20073;-76
2022/09/02 00:11:39;;;;;;;2.35;1.40;;;17.00;99.90;;;;;;5006636;28;20041;-77
2022/09/02 00:14:09;;;;;;;3.05;1.52;;;16.80;99.90;;;;;;4993580;28;20036;-76
2022/09/02 00:16:35;;;;;;;2.20;1.63;;;16.90;99.90;;;;;;5006735;28;20511;-76
2022/09/02 00:19:02;;;;;;;4.53;1.58;;;17.00;99.90;;;;;;5000551;28;20034;-77
2022/09/02 00:21:29;;;;;;;2.47;1.50;;;16.80;99.90;;;;;;4998315;28;20448;-77
2022/09/02 00:23:55;;;;;;;3.20;1.45;;;16.80;99.90;;;;;;5002653;28;20395;-75
2022/09/02 00:26:21;;;;;;;3.00;1.30;;;16.70;99.90;;;;;;5006489;28;20029;-76
2022/09/02 00:28:47;;;;;;;4.60;1.42;;;16.60;99.90;;;;;;5000615;28;20446;-76
2022/09/02 00:31:14;;;;;;;3.78;1.50;;;16.80;99.90;;;;;;4998717;28;20058;-78
2022/09/02 00:33:40;;;;;;;2.35;1.27;;;16.80;99.90;;;;;;5013165;28;20105;-76
2022/09/02 00:36:06;;;;;;;4.38;1.50;;;16.80;99.90;;;;;;5009351;28;20539;-77
2022/09/02 00:38:34;;;;;;;2.75;1.30;;;16.80;99.90;;;;;;5001792;28;20096;-77
2022/09/02 00:41:02;;;;;;;1.90;1.33;;;16.70;99.90;;;;;;4996028;28;20019;-76
2022/09/02 00:43:59;;;;;;;2.55;1.45;;;16.80;99.90;;;;;;4993385;28;20054;-76
2022/09/02 00:46:27;;;;;;;4.88;1.67;;;16.50;99.90;;;;;;4998608;28;20032;-77
2022/09/02 00:49:16;;;;;;;3.95;1.52;;;16.50;99.90;;;;;;4997378;28;20034;-77
2022/09/02 00:51:47;;;;;;;2.22;1.40;;;16.60;99.90;;;;;;5002317;28;20065;-78
2022/09/02 00:54:14;;;;;;;4.10;1.38;;;16.60;99.90;;;;;;4999167;28;20081;-78
2022/09/02 00:56:42;;;;;;;3.05;1.30;;;16.70;99.90;;;;;;5001412;28;20459;-77
2022/09/02 00:59:12;;;;;;;2.28;1.40;;;16.70;99.90;;;;;;5005638;28;20022;-76
2022/09/02 01:01:38;;;;;;;3.17;1.17;;;16.80;99.90;;;;;;5003295;28;20030;-77
2022/09/02 01:04:04;;;;;;;1.83;1.33;;;16.80;99.90;;;;;;4993310;28;20365;-76
2022/09/02 01:06:32;;;;;;;1.80;1.10;;;16.90;99.90;;;;;;5004445;28;20388;-77
2022/09/02 01:09:09;;;;;;;3.22;1.52;;;16.90;99.90;;;;;;4993245;28;20109;-77
2022/09/02 01:11:39;;;;;;;1.85;1.38;;;16.90;99.90;;;;;;5006146;28;20029;-76
2022/09/02 01:14:06;;;;;;;1.95;1.40;;;16.80;99.90;;;;;;5011399;28;20022;-77
2022/09/02 01:16:44;;;;;;;3.13;1.45;;;16.80;99.90;;;;;;4997606;28;20041;-77
2022/09/02 01:19:21;;;;;;;1.55;1.20;;;16.80;99.90;;;;;;4992662;28;20022;-76
2022/09/02 01:21:49;;;;;;;2.13;1.45;;;16.80;99.90;;;;;;4992475;28;20520;-76
2022/09/02 01:24:18;;;;;;;2.55;1.27;;;16.80;99.90;;;;;;4992405;28;20054;-76
2022/09/02 01:26:44;;;;;;;2.22;1.58;;;16.80;99.90;;;;;;4992454;28;20535;-77
2022/09/02 01:29:09;;;;;;;2.90;1.20;;;16.70;99.90;;;;;;5004221;28;20056;-77
2022/09/02 01:31:35;;;;;;;3.15;1.20;;;16.50;99.90;;;;;;4997269;28;20022;-77
2022/09/02 01:34:01;;;;;;;1.75;1.30;;;16.80;99.90;;;;;;5000373;28;20439;-77
2022/09/02 01:36:26;;;;;;;2.33;1.30;;;16.70;99.90;;;;;;5005524;28;20037;-76
2022/09/02 01:38:52;;;;;;;1.98;1.17;;;16.80;99.90;;;;;;4992439;28;20491;-75
2022/09/02 01:41:17;;;;;;;2.13;1.13;;;16.80;99.90;;;;;;5010463;28;20091;-75
2022/09/02 01:43:43;;;;;;;1.77;1.30;;;16.90;99.90;;;;;;5000581;28;20034;-77
2022/09/02 01:46:08;;;;;;;2.75;1.30;;;16.70;99.90;;;;;;4993024;28;20503;-76
2022/09/02 01:48:34;;;;;;;1.38;1.10;;;16.70;99.90;;;;;;5003626;28;20030;-78
2022/09/02 01:51:02;;;;;;;2.70;1.40;;;16.70;99.90;;;;;;4994418;28;20033;-77
2022/09/02 01:53:28;;;;;;;3.00;1.50;;;16.60;99.90;;;;;;5003732;28;20117;-78
2022/09/02 01:55:54;;;;;;;2.65;1.48;;;16.50;99.90;;;;;;4994184;28;20039;-76
2022/09/02 01:58:20;;;;;;;3.88;1.40;;;16.50;99.90;;;;;;5002066;28;20053;-76
2022/09/02 02:00:46;;;;;;;3.17;1.40;;;16.50;99.90;;;;;;4998762;28;20026;-77
2022/09/02 02:03:12;;;;;;;1.90;1.42;;;16.50;99.90;;;;;;5003225;28;20115;-74
2022/09/02 02:05:38;;;;;;;3.03;1.45;;;16.50;99.90;;;;;;5009078;28;20551;-74
2022/09/02 02:08:05;;;;;;;4.50;1.60;;;16.40;99.90;;;;;;5007030;28;20113;-76
2022/09/02 02:10:31;;;;;;;1.98;1.40;;;16.50;99.90;;;;;;5002224;28;20108;-76
2022/09/02 02:12:58;;;;;;;2.55;1.42;;;16.40;99.90;;;;;;5003819;28;20030;-77
2022/09/02 02:15:24;;;;;;;3.38;1.38;;;16.40;99.90;;;;;;5000079;28;20026;-76
2022/09/02 02:17:50;;;;;;;1.50;1.40;;;16.30;99.90;;;;;;5015265;28;20021;-77
2022/09/02 02:20:18;;;;;;;3.30;1.60;;;16.20;99.90;;;;;;5000927;28;20037;-77
2022/09/02 02:22:45;;;;;;;2.85;1.55;;;16.20;99.90;;;;;;5001684;28;20424;-77
2022/09/02 02:25:13;;;;;;;1.83;1.60;;;16.20;99.90;;;;;;5007420;28;20034;-76
2022/09/02 02:27:40;;;;;;;3.42;1.60;;;16.00;99.90;;;;;;5006731;28;20033;-76
2022/09/02 02:30:08;;;;;;;2.55;1.52;;;16.10;99.90;;;;;;5001960;28;20057;-77
2022/09/02 02:32:34;;;;;;;2.40;1.40;;;16.00;99.90;;;;;;5014879;28;20037;-77
2022/09/02 02:35:00;;;;;;;1.98;1.58;;;15.90;99.90;;;;;;5000611;28;20113;-77
2022/09/02 02:37:26;;;;;;;3.92;1.63;;;15.70;99.90;;;;;;5001737;28;20149;-75
2022/09/02 02:39:52;;;;;;;3.95;1.73;;;15.70;99.90;;;;;;5008549;28;20112;-76
2022/09/02 02:42:17;;;;;;;2.08;1.50;;;15.80;99.90;;;;;;5007868;28;20105;-76
2022/09/02 02:44:43;;;;;;;2.08;1.27;;;15.70;99.90;;;;;;5001798;28;20081;-76
2022/09/02 02:47:08;;;;;;;1.95;1.58;;;15.90;99.90;;;;;;5000584;28;20492;-76
2022/09/02 02:49:39;;;;;;;3.85;1.30;;;15.60;99.90;;;;;;5001266;28;20439;-76
2022/09/02 02:52:05;;;;;;;5.05;1.83;;;15.50;99.90;;;;;;5001323;28;20034;-76
2022/09/02 02:54:31;;;;;;;3.05;1.58;;;15.70;99.90;;;;;;5007826;28;20092;-76
2022/09/02 02:56:57;;;;;;;4.07;1.48;;;15.80;99.90;;;;;;5007541;28;20033;-76
2022/09/02 02:59:23;;;;;;;2.50;1.35;;;15.90;99.90;;;;;;5007809;28;20432;-76
2022/09/02 03:01:49;;;;;;;2.67;1.23;;;15.60;99.90;;;;;;5007784;28;20018;-75
2022/09/02 03:04:15;;;;;;;1.65;1.30;;;15.30;99.90;;;;;;5001719;28;20481;-76
2022/09/02 03:06:40;;;;;;;2.05;1.40;;;15.30;99.90;;;;;;5000888;28;20030;-75
2022/09/02 03:09:06;;;;;;;1.80;1.60;;;15.00;99.90;;;;;;4999789;28;20105;-75
2022/09/02 03:11:32;;;;;;;3.45;1.50;;;15.00;99.90;;;;;;5008927;28;20645;-74
2022/09/02 03:13:58;;;;;;;2.30;1.42;;;14.60;99.90;;;;;;5000481;28;20033;-75
2022/09/02 03:16:24;;;;;;;3.95;1.23;;;14.70;99.90;;;;;;5000995;28;20030;-75
2022/09/02 03:18:50;;;;;;;3.00;1.50;;;14.50;99.90;;;;;;5013988;28;20117;-75
2022/09/02 03:21:17;;;;;;;4.50;1.60;;;14.60;99.90;;;;;;5003605;28;20045;-76
2022/09/02 03:23:43;;;;;;;1.40;1.30;;;14.40;99.90;;;;;;5007044;28;20026;-75
2022/09/02 03:26:11;;;;;;;2.72;1.50;;;14.50;99.90;;;;;;5007635;28;20026;-75
2022/09/02 03:28:38;;;;;;;1.77;1.50;;;14.50;99.90;;;;;;5000263;28;20026;-75
2022/09/02 03:31:04;;;;;;;1.85;1.20;;;14.50;99.90;;;;;;5000591;28;20101;-75
2022/09/02 03:33:29;;;;;;;2.88;1.50;;;14.30;99.90;;;;;;5005355;28;20026;-75
2022/09/02 03:35:55;;;;;;;2.03;1.48;;;14.30;99.90;;;;;;5007237;28;20092;-76
2022/09/02 03:38:21;;;;;;;3.60;1.45;;;14.40;99.90;;;;;;5001225;28;20025;-76
2022/09/02 03:40:47;;;;;;;3.88;1.50;;;14.10;99.90;;;;;;5000726;28;20022;-76
2022/09/02 03:43:13;;;;;;;4.13;1.60;;;13.90;99.90;;;;;;5006552;28;20030;-75
2022/09/02 03:45:40;;;;;;;3.25;1.60;;;13.90;99.90;;;;;;5007216;28;20022;-75
2022/09/02 03:48:06;;;;;;;4.25;1.92;;;14.00;99.90;;;;;;5000929;28;20022;-75
2022/09/02 03:50:38;;;;;;;4.25;1.83;;;13.90;99.90;;;;;;5000105;28;20081;-75
2022/09/02 03:53:05;;;;;;;2.83;1.40;;;13.70;99.90;;;;;;5005488;28;20388;-76
2022/09/02 03:55:31;;;;;;;4.22;1.80;;;13.90;99.90;;;;;;5008234;28;20044;-75
2022/09/02 03:57:57;;;;;;;2.42;1.42;;;13.70;99.90;;;;;;5013221;28;20388;-75
2022/09/02 04:00:27;;;;;;;1.77;1.38;;;13.60;99.90;;;;;;5013230;28;20041;-76
2022/09/02 04:02:54;;;;;;;1.63;1.50;;;13.40;99.90;;;;;;5004658;28;20023;-76
2022/09/02 04:05:21;;;;;;;2.20;1.75;;;13.70;99.90;;;;;;5008096;28;20026;-76
2022/09/02 04:07:50;;;;;;;2.58;1.60;;;13.50;99.90;;;;;;5002475;28;20384;-75
2022/09/02 04:10:15;;;;;;;2.97;1.63;;;13.40;99.90;;;;;;4998665;28;20146;-75
2022/09/02 04:12:42;;;;;;;2.88;1.63;;;13.50;99.90;;;;;;5001947;28;20210;-75
2022/09/02 04:15:10;;;;;;;3.38;1.70;;;13.70;99.90;;;;;;5019185;28;20038;-74
2022/09/02 04:20:59;;;;;;;2.00;1.50;;;13.40;99.90;;;;;;5004748;28;20021;-75
2022/09/02 04:23:24;;;;;;;3.33;1.50;;;13.60;99.90;;;;;;4999697;28;20025;-75
2022/09/02 04:25:50;;;;;;;3.00;1.63;;;13.50;99.90;;;;;;5011337;28;20377;-75
2022/09/02 04:28:16;;;;;;;2.05;1.63;;;13.40;99.90;;;;;;5006263;28;20400;-74
2022/09/02 04:30:42;;;;;;;2.22;1.60;;;13.30;99.90;;;;;;4993267;28;20049;-75
2022/09/02 04:33:08;;;;;;;3.80;1.70;;;13.40;99.90;;;;;;5006088;28;20631;-75
2022/09/02 04:35:34;;;;;;;2.78;1.50;;;13.10;99.90;;;;;;5003303;28;20631;-74
2022/09/02 04:38:01;;;;;;;2.45;1.85;;;13.00;99.90;;;;;;4998050;28;20024;-74
2022/09/02 04:40:27;;;;;;;3.10;1.80;;;13.50;99.90;;;;;;5001001;28;20030;-75
2022/09/02 04:42:53;;;;;;;2.60;1.73;;;13.20;99.90;;;;;;4996506;28;20021;-75
2022/09/02 04:45:19;;;;;;;2.40;1.63;;;13.00;99.90;;;;;;5000980;28;20018;-76
2022/09/02 04:47:44;;;;;;;2.95;2.05;;;13.00;99.90;;;;;;5004819;28;20022;-75
2022/09/02 04:50:10;;;;;;;2.13;1.75;;;13.10;99.90;;;;;;5006236;28;20084;-76
2022/09/02 04:52:35;;;;;;;3.70;1.80;;;13.00;99.90;;;;;;5001160;28;20076;-76
2022/09/02 04:55:01;;;;;;;3.28;1.85;;;12.90;99.90;;;;;;4999586;28;20089;-76
2022/09/02 04:57:27;;;;;;;3.33;1.75;;;13.20;99.90;;;;;;5006093;28;20109;-75
2022/09/02 04:59:52;;;;;;;4.57;2.13;;;13.10;99.90;;;;;;4992886;28;20038;-76
2022/09/02 05:02:19;;;;;;;3.53;2.00;;;13.10;99.90;;;;;;4998040;28;20533;-75
2022/09/02 05:04:45;;;;;;;10.60;2.33;;;13.00;99.90;;;;;;4999076;28;20030;-76
2022/09/02 05:07:10;;;;;;;3.63;1.90;;;13.20;99.90;;;;;;4992309;28;20035;-76
2022/09/02 05:09:37;;;;;;;2.20;1.70;;;12.90;99.90;;;;;;4992503;28;20088;-75
2022/09/02 05:12:03;;;;;;;3.92;1.70;;;12.90;99.90;;;;;;5005544;28;20022;-76
2022/09/02 05:14:29;;;;;;;3.15;1.98;;;12.90;99.90;;;;;;5003311;28;20157;-76
2022/09/02 05:16:55;;;;;;;3.83;1.80;;;12.80;99.90;;;;;;5007397;28;20120;-76
2022/09/02 05:19:22;;;;;;;4.45;2.20;;;13.30;99.90;;;;;;5003526;28;20129;-75
2022/09/02 05:21:49;;;;;;;5.63;2.00;;;13.20;99.90;;;;;;5035619;22;20021;-73
2022/09/02 05:24:15;;;;;;;3.90;1.90;;;13.30;99.90;;;;;;5043221;28;20398;-73
2022/09/02 05:26:43;;;;;;;2.63;1.90;;;13.50;99.90;;;;;;5033393;28;20022;-73
2022/09/02 05:29:10;;;;;;;2.80;1.80;;;13.50;99.90;;;;;;5031669;28;20025;-73
2022/09/02 05:31:37;;;;;;;2.70;1.58;;;13.80;99.90;;;;;;5045522;28;20056;-73
2022/09/02 05:34:03;;;;;;;7.40;2.13;;;13.70;99.90;;;;;;5032255;28;20041;-72
2022/09/02 05:36:31;;;;;;;4.68;1.80;;;13.70;99.90;;;;;;5031481;28;20478;-73
2022/09/02 05:38:57;;;;;;;3.38;2.17;;;13.90;99.90;;;;;;5023543;28;20109;-73
2022/09/02 05:41:24;;;;;;;3.60;1.80;;;14.00;99.90;;;;;;5034954;28;20435;-72
2022/09/02 05:43:55;;;;;;;4.15;1.80;;;14.10;99.90;;;;;;5023304;28;20026;-72
2022/09/02 05:46:23;;;;;;;3.85;1.75;;;14.30;99.90;;;;;;5022038;28;20040;-73
2022/09/02 05:49:06;;;;;;;2.72;1.85;;;14.40;99.90;;;;;;5035016;28;20025;-72
2022/09/02 05:51:53;;;;;;;4.60;1.90;;;14.70;99.90;;;;;;5012779;28;20109;-72
2022/09/02 05:54:33;;;;;;;2.35;1.90;;;14.70;99.90;;;;;;5020707;28;20033;-73
2022/09/02 05:57:03;;;;;;;2.83;1.80;;;14.80;99.90;;;;;;5032524;28;20515;-73
2022/09/02 05:59:30;;;;;;;3.55;1.50;;;14.80;99.90;;;;;;5026590;28;20029;-73
2022/09/02 06:01:57;;;;;;;3.35;2.10;;;14.80;99.90;;;;;;5016313;28;20144;-73
2022/09/02 06:04:23;;;;;;;4.38;1.65;;;15.10;99.90;;;;;;5035257;28;20027;-73
2022/09/02 06:06:49;;;;;;;2.92;1.58;;;15.30;99.90;;;;;;5021882;28;20045;-73
2022/09/02 06:09:17;;;;;;;2.78;1.58;;;15.40;99.90;;;;;;5027156;28;20038;-72
2022/09/02 06:11:44;;;;;;;2.72;1.55;;;15.50;99.90;;;;;;5016791;28;20045;-73
2022/09/02 06:14:12;;;;;;;1.60;1.50;;;15.60;99.90;;;;;;5026289;28;20152;-72
2022/09/02 06:16:39;;;;;;;4.43;1.75;;;15.70;99.90;;;;;;5015081;28;20049;-73
2022/09/02 06:19:06;;;;;;;2.05;1.70;;;15.90;99.90;;;;;;5023038;28;20085;-73
2022/09/02 06:21:32;;;;;;;3.83;1.60;;;15.70;99.90;;;;;;5033523;28;20057;-72
2022/09/02 06:23:58;;;;;;;5.47;1.75;;;15.60;99.90;;;;;;5025933;28;20057;-75
2022/09/02 06:26:24;;;;;;;4.15;1.40;;;15.70;99.90;;;;;;5025460;28;20029;-72
2022/09/02 06:28:49;;;;;;;4.45;1.70;;;15.70;99.90;;;;;;5025495;28;20026;-72
2022/09/02 06:31:21;;;;;;;2.05;1.50;;;15.80;99.90;;;;;;5030650;28;20048;-72
2022/09/02 06:33:51;;;;;;;4.07;1.77;;;15.90;99.90;;;;;;5022523;28;20543;-73
2022/09/02 06:36:18;;;;;;;3.15;1.70;;;16.10;99.90;;;;;;5028117;28;20034;-72
2022/09/02 06:38:47;;;;;;;2.30;1.60;;;16.20;99.90;;;;;;5025028;28;20053;-73
2022/09/02 06:41:15;;;;;;;5.38;1.73;;;16.30;99.90;;;;;;5016018;28;20075;-72
2022/09/02 06:43:41;;;;;;;3.40;1.40;;;16.30;99.90;;;;;;5024459;28;20025;-73
2022/09/02 06:46:07;;;;;;;3.42;1.50;;;16.40;99.90;;;;;;5016712;28;20037;-73
2022/09/02 06:48:33;;;;;;;3.50;1.80;;;16.40;99.90;;;;;;5025502;28;20033;-73
2022/09/02 06:51:00;;;;;;;3.10;1.75;;;16.40;99.90;;;;;;5033020;28;20037;-73
2022/09/02 06:53:26;;;;;;;3.70;1.77;;;16.30;99.90;;;;;;5023260;28;20026;-73
2022/09/02 06:55:51;;;;;;;3.10;1.50;;;16.60;99.90;;;;;;5027321;28;20038;-73
2022/09/02 06:58:17;;;;;;;2.80;1.45;;;16.80;99.90;;;;;;5016090;28;20559;-73
2022/09/02 07:00:44;;;;;;;5.63;1.63;;;16.80;99.90;;;;;;5015957;28;20029;-72
2022/09/02 07:06:10;;;;;;;5.25;2.03;;;17.00;99.90;;;;;;5022431;28;20129;-74
2022/09/02 07:08:37;;;;;;;5.68;2.00;;;17.10;99.90;;;;;;5019375;28;20025;-73
2022/09/02 07:11:04;;;;;;;3.17;1.67;;;17.00;99.90;;;;;;5009124;28;20037;-73
2022/09/02 07:13:30;;;;;;;3.40;1.60;;;17.20;99.90;;;;;;5014411;28;20475;-73
2022/09/02 07:15:55;;;;;;;1.90;1.70;;;17.10;99.90;;;;;;5022692;28;20036;-73
2022/09/02 07:18:21;;;;;;;2.38;1.40;;;17.40;99.90;;;;;;5020285;28;20471;-73
2022/09/02 07:20:47;;;;;;;3.78;1.75;;;17.30;99.90;;;;;;5024021;28;20065;-73
2022/09/02 07:23:14;;;;;;;3.15;1.50;;;17.40;99.90;;;;;;5016847;28;20030;-73
2022/09/02 07:25:42;;;;;;;2.85;1.70;;;17.50;99.90;;;;;;5019292;28;20021;-73
2022/09/02 07:28:09;;;;;;;2.25;1.40;;;17.60;99.90;;;;;;5017232;28;20080;-73
2022/09/02 07:30:35;;;;;;;3.17;1.80;;;17.60;99.90;;;;;;5018201;28;20014;-73
2022/09/02 07:33:01;;;;;;;2.30;1.50;;;17.70;99.90;;;;;;5021096;28;20037;-73
2022/09/02 07:35:28;;;;;;;1.88;1.40;;;17.60;99.90;;;;;;5026025;28;20021;-73
2022/09/02 07:37:53;;;;;;;2.50;1.45;;;17.90;99.90;;;;;;5017019;28;20048;-73
2022/09/02 07:40:19;;;;;;;3.13;1.30;;;17.90;99.90;;;;;;5018987;28;20080;-72
2022/09/02 07:42:45;;;;;;;3.40;1.42;;;18.00;99.90;;;;;;5022901;28;20034;-73
2022/09/02 07:45:13;;;;;;;2.53;1.40;;;18.10;99.90;;;;;;5024506;28;20045;-73
2022/09/02 07:47:39;;;;;;;1.48;1.30;;;18.30;99.90;;;;;;5015720;28;20034;-73
2022/09/02 07:50:05;;;;;;;2.50;1.42;;;18.30;99.90;;;;;;5029822;28;20428;-73
2022/09/02 07:52:31;;;;;;;2.22;1.30;;;18.40;99.90;;;;;;5032807;28;20029;-73
2022/09/02 07:54:57;;;;;;;2.28;1.38;;;18.30;99.90;;;;;;5032949;28;20075;-73
2022/09/02 07:57:23;;;;;;;3.10;1.23;;;18.40;99.90;;;;;;5021132;28;20021;-73
2022/09/02 07:59:49;;;;;;;2.20;1.45;;;18.60;99.90;;;;;;5018929;28;20022;-74
2022/09/02 08:02:17;;;;;;;3.17;1.60;;;18.80;99.90;;;;;;5021237;28;20037;-73
2022/09/02 08:04:43;;;;;;;4.22;1.50;;;18.80;99.90;;;;;;5031209;28;20029;-73
2022/09/02 08:07:09;;;;;;;2.65;1.35;;;18.90;99.90;;;;;;5017900;28;20105;-73
2022/09/02 08:09:35;;;;;;;2.95;1.48;;;19.00;99.90;;;;;;5030132;28;20033;-74
2022/09/02 08:12:01;;;;;;;2.40;1.67;;;19.10;99.90;;;;;;5016933;28;20022;-73
2022/09/02 08:14:28;;;;;;;2.38;1.50;;;19.10;99.90;;;;;;5011506;28;20403;-73
2022/09/02 08:16:55;;;;;;;2.17;1.35;;;19.20;99.90;;;;;;5013828;28;20022;-73
2022/09/02 08:19:21;;;;;;;2.47;1.38;;;19.10;99.90;;;;;;5016457;28;20028;-72
2022/09/02 08:21:47;;;;;;;2.50;1.40;;;19.10;99.90;;;;;;5016899;28;20104;-77
2022/09/02 08:24:12;;;;;;;1.80;1.30;;;19.20;99.90;;;;;;5006740;28;20579;-72
2022/09/02 08:26:38;;;;;;;2.33;1.55;;;19.40;99.90;;;;;;5009048;28;20049;-73
2022/09/02 08:29:05;;;;;;;3.20;1.48;;;19.50;99.90;;;;;;5011340;28;20036;-73
2022/09/02 08:31:31;;;;;;;2.20;1.30;;;19.40;99.90;;;;;;5012893;28;20025;-73
2022/09/02 08:33:57;;;;;;;1.95;1.23;;;19.50;99.90;;;;;;5010779;28;20520;-73
2022/09/02 08:36:23;;;;;;;1.15;1.02;;;19.50;99.90;;;;;;5016036;28;20112;-73
2022/09/02 08:38:49;;;;;;;1.58;1.27;;;19.60;99.90;;;;;;5019290;28;20112;-73
2022/09/02 08:41:29;;;;;;;1.80;1.40;;;19.80;99.90;;;;;;5025824;28;20053;-73
2022/09/02 08:43:59;;;;;;;4.20;1.50;;;19.70;99.90;;;;;;5024375;28;20029;-73
2022/09/02 08:46:27;;;;;;;1.73;1.30;;;19.80;99.90;;;;;;5021136;28;20025;-73
2022/09/02 08:48:58;;;;;;;5.93;1.60;;;19.90;99.90;;;;;;5031209;28;20394;-73
2022/09/02 08:51:51;;;;;;;2.00;1.55;;;20.00;99.90;;;;;;5021053;28;20049;-73
2022/09/02 08:54:20;;;;;;;3.42;1.20;;;20.00;99.90;;;;;;5018856;28;20060;-73
2022/09/02 08:56:48;;;;;;;2.25;1.30;;;20.10;99.90;;;;;;5031977;28;20065;-73
2022/09/02 08:59:25;;;;;;;2.30;1.30;;;20.20;99.90;;;;;;5031964;28;20021;-73
2022/09/02 09:02:26;;;;;;;6.40;1.95;;;20.20;99.90;;;;;;5031941;28;20385;-73
2022/09/02 09:05:07;;;;;;;3.08;1.30;;;20.30;99.90;;;;;;5003546;28;20068;-73
2022/09/02 09:07:39;;;;;;;2.03;1.13;;;20.30;99.90;;;;;;5024012;28;20454;-73
2022/09/02 09:10:08;;;;;;;3.33;1.10;;;20.40;99.90;;;;;;5027176;28;20109;-73
2022/09/02 09:12:49;;;;;;;3.15;1.20;;;20.50;99.90;;;;;;5020689;28;20114;-73
2022/09/02 09:15:20;;;;;;;2.80;1.17;;;20.50;99.90;;;;;;5029604;28;20029;-73
2022/09/02 09:17:56;;;;;;;1.67;1.10;;;20.70;99.90;;;;;;5031646;28;20018;-73
2022/09/02 09:20:26;;;;;;;3.33;1.20;;;20.70;99.90;;;;;;5005652;28;20014;-73
2022/09/02 09:22:55;;;;;;;2.53;0.90;;;20.80;99.90;;;;;;5018390;28;20431;-73
2022/09/02 09:25:27;;;;;;;2.17;1.10;;;20.40;99.90;;;;;;5031811;28;20192;-73
2022/09/02 09:27:52;;;;;;;3.55;1.17;;;19.90;99.90;;;;;;5016974;28;20032;-73
2022/09/02 09:30:18;;;;;;;2.50;1.30;;;20.10;99.90;;;;;;5031660;28;20025;-73
2022/09/02 09:32:51;;;;;;;1.50;1.00;;;20.60;99.90;;;;;;5031425;28;20438;-72
2022/09/02 09:35:18;;;;;;;4.13;1.23;;;20.60;99.90;;;;;;5021971;28;20030;-73
2022/09/02 09:37:46;;;;;;;2.33;1.10;;;20.90;99.90;;;;;;5024765;28;20022;-73
2022/09/02 09:40:21;;;;;;;2.20;1.23;;;21.40;99.90;;;;;;5011919;28;20539;-73
2022/09/02 09:43:12;;;;;;;1.43;1.10;;;21.20;99.50;;;;;;5025099;28;20381;-73
2022/09/02 09:45:45;;;;;;;1.38;0.90;;;21.30;99.70;;;;;;5003605;28;20042;-73
2022/09/02 09:48:17;;;;;;;2.65;1.20;;;21.20;98.20;;;;;;5031370;28;20387;-73
2022/09/02 09:50:48;;;;;;;1.63;0.90;;;21.00;98.50;;;;;;5026858;28;20030;-73
2022/09/02 09:53:14;;;;;;;1.75;1.20;;;21.20;97.90;;;;;;5011676;28;20037;-73
2022/09/02 09:55:54;;;;;;;1.92;1.10;;;21.30;98.30;;;;;;5027367;28;20060;-73
2022/09/02 09:58:33;;;;;;;2.78;1.00;;;21.60;98.00;;;;;;5031158;28;20761;-73
2022/09/02 10:01:15;;;;;;;2.92;1.10;;;21.80;97.50;;;;;;5005738;28;20053;-73
2022/09/02 10:03:47;;;;;;;1.65;1.02;;;22.20;97.80;;;;;;5031108;28;20029;-73
2022/09/02 10:06:19;;;;;;;1.52;0.90;;;22.40;97.40;;;;;;5020590;28;20076;-73
2022/09/02 10:08:54;;;;;;;2.03;0.90;;;22.00;97.80;;;;;;5024433;28;20026;-73
2022/09/02 10:11:34;;;;;;;2.83;1.00;;;21.50;97.50;;;;;;5024093;28;20360;-73
2022/09/02 10:14:02;;;;;;;2.75;1.15;;;21.50;97.90;;;;;;5023590;28;20049;-74
2022/09/02 10:16:50;;;;;;;2.05;1.10;;;21.90;97.80;;;;;;5025699;28;20025;-73
2022/09/02 10:19:33;;;;;;;1.30;1.00;;;22.10;96.90;;;;;;5030980;28;20035;-73
2022/09/02 10:22:20;;;;;;;3.47;1.20;;;21.90;97.70;;;;;;5026787;28;20487;-73
2022/09/02 10:25:00;;;;;;;1.30;1.00;;;21.70;97.90;;;;;;5034392;28;20018;-73
2022/09/02 10:28:08;;;;;;;1.35;1.00;;;21.90;97.30;;;;;;5034395;28;20028;-73
2022/09/02 10:30:45;;;;;;;1.75;1.13;;;21.60;97.30;;;;;;5034620;28;20049;-73
2022/09/02 10:33:18;;;;;;;1.38;0.95;;;21.90;96.40;;;;;;5034469;28;20022;-73
2022/09/02 10:35:47;;;;;;;1.45;0.90;;;21.90;96.50;;;;;;5034550;28;20360;-73
2022/09/02 10:38:37;;;;;;;0.95;0.88;;;21.90;97.00;;;;;;5034536;28;20435;-73
2022/09/02 10:41:22;;;;;;;1.77;1.02;;;22.30;96.30;;;;;;5034469;28;20025;-73
2022/09/02 10:44:24;;;;;;;2.72;0.98;;;22.00;96.30;;;;;;5034365;28;20029;-74
2022/09/02 10:47:02;;;;;;;1.52;1.02;;;22.00;96.80;;;;;;5034231;28;20025;-74
2022/09/02 10:50:03;;;;;;;1.92;1.05;;;22.10;97.00;;;;;;5032835;28;20044;-73
2022/09/02 10:52:42;;;;;;;1.35;1.10;;;22.10;97.00;;;;;;4953691;29;20031;-73
2022/09/02 10:55:49;;;;;;;1.75;1.00;;;22.00;96.70;;;;;;5024521;28;20044;-73
2022/09/02 10:58:18;;;;;;;;;;;22.00;96.70;;;;;;5032823;28;20052;-73
2022/09/02 11:00:47;;;;;;;2.97;1.20;;;22.00;96.00;;;;;;5034088;28;20366;-73
2022/09/02 11:03:16;;;;;;;1.23;1.13;;;22.00;95.80;;;;;;5032779;28;20474;-73
2022/09/02 11:05:52;;;;;;;3.58;1.10;;;21.60;95.70;;;;;;5034108;28;20485;-73
2022/09/02 11:08:33;;;;;;;2.08;1.00;;;21.60;96.10;;;;;;5033766;28;20364;-73
2022/09/02 11:11:23;;;;;;;3.88;1.13;;;21.50;96.30;;;;;;5034128;28;20033;-73
2022/09/02 11:14:02;;;;;;;2.10;1.08;;;21.90;96.10;;;;;;5028027;28;20022;-73
2022/09/02 11:16:36;;;;;;;1.30;1.00;;;21.50;96.30;;;;;;5028123;28;20029;-74
2022/09/02 11:19:29;;;;;;;2.00;1.27;;;21.80;96.30;;;;;;5033717;28;20104;-74
2022/09/02 11:22:31;;;;;;;1.50;1.15;;;21.90;96.10;;;;;;5042902;22;20009;-76
2022/09/02 11:25:07;;;;;;;3.10;1.20;;;21.80;96.30;;;;;;5003120;28;20061;-75
2022/09/02 11:27:45;;;;;;;2.28;1.23;;;22.00;96.00;;;;;;5014230;28;20252;-76
2022/09/02 11:30:12;;;;;;;2.05;1.15;;;21.80;96.20;;;;;;5021063;28;20033;-76
2022/09/02 11:32:55;;;;;;;2.25;1.33;;;21.80;96.40;;;;;;5018118;28;20030;-76
2022/09/02 11:35:27;;;;;;;2.88;1.40;;;21.70;96.40;;;;;;5012725;28;20030;-76
2022/09/02 11:38:00;;;;;;;2.25;1.10;;;21.80;96.70;;;;;;5012238;28;20026;-76
2022/09/02 11:41:21;;;;;;;2.97;1.33;;;21.80;96.30;;;;;;5025266;28;20017;-77
2022/09/02 11:44:24;;;;;;;3.63;1.10;;;22.60;96.50;;;;;;5012107;28;20461;-77
2022/09/02 11:47:05;;;;;;;2.55;1.20;;;22.80;96.40;;;;;;4994920;28;20065;-77
2022/09/02 11:50:03;;;;;;;2.50;1.20;;;22.50;96.30;;;;;;5013417;28;20053;-78
2022/09/02 11:52:37;;;;;;;3.38;1.30;;;22.10;96.10;;;;;;5013174;28;20021;-76
2022/09/02 11:55:08;;;;;;;2.17;1.20;;;22.20;96.40;;;;;;5012088;28;20058;-77
2022/09/02 11:57:34;;;;;;;1.60;1.30;;;22.20;95.90;;;;;;5013000;28;20030;-76
2022/09/02 12:00:02;;;;;;;1.45;1.10;;;22.40;96.10;;;;;;5013262;28;20369;-77
2022/09/02 12:02:40;;;;;;;3.42;1.30;;;22.90;95.80;;;;;;5012797;28;20026;-77
2022/09/02 12:05:28;;;;;;;1.63;1.27;;;22.90;95.70;;;;;;5013210;28;20026;-76
2022/09/02 12:07:55;;;;;;;2.13;1.48;;;23.70;95.40;;;;;;5012080;28;20055;-76
2022/09/02 12:10:42;;;;;;;1.70;1.20;;;24.10;95.10;;;;;;5029443;28;20029;-76
2022/09/02 12:13:40;;;;;;;1.50;1.33;;;24.50;94.30;;;;;;5048090;28;20026;-76
2022/09/02 12:16:14;;;;;;;1.40;1.30;;;24.90;94.40;;;;;;5040390;28;20053;-75
2022/09/02 12:18:43;;;;;;;2.97;1.33;;;25.20;93.00;;;;;;5032627;28;20017;-76
2022/09/02 12:21:14;;;;;;;2.20;1.45;;;24.80;93.50;;;;;;5032799;28;20017;-76
2022/09/02 12:23:54;;;;;;;1.33;1.20;;;25.60;93.10;;;;;;5026099;28;20088;-76
2022/09/02 12:26:27;;;;;;;1.73;1.33;;;25.70;93.10;;;;;;5013165;28;20030;-76
2022/09/02 12:29:08;;;;;;;2.50;1.30;;;26.50;92.20;;;;;;5012733;28;20495;-77
2022/09/02 12:31:41;;;;;;;1.52;1.20;;;25.70;91.80;;;;;;5013258;28;20053;-76
2022/09/02 12:34:19;;;;;;;3.47;1.27;;;26.30;91.60;;;;;;5012195;28;20113;-75
2022/09/02 12:36:55;;;;;;;1.92;1.20;;;26.70;91.90;;;;;;5011352;28;20053;-75
2022/09/02 12:39:23;;;;;;;1.80;1.45;;;26.70;91.50;;;;;;5028102;28;20026;-76
2022/09/02 12:42:02;;;;;;;1.65;1.38;;;27.60;90.50;;;;;;5032299;28;20032;-76
2022/09/02 12:44:31;;;;;;;1.30;1.20;;;28.00;89.90;;;;;;5032680;28;20025;-76
2022/09/02 12:47:03;;;;;;;1.30;1.20;;;26.40;90.50;;;;;;5030769;28;20088;-76
2022/09/02 12:49:36;;;;;;;1.63;1.20;;;26.90;90.30;;;;;;5032358;28;20120;-77
2022/09/02 12:52:05;;;;;;;1.30;1.20;;;27.90;89.90;;;;;;5018970;28;20028;-75
2022/09/02 12:54:36;;;;;;;3.67;1.20;;;28.10;89.50;;;;;;5019868;28;20052;-76
2022/09/02 12:57:03;;;;;;;2.05;1.45;;;27.90;88.10;;;;;;5031957;28;20029;-76
2022/09/02 12:59:32;;;;;;;2.20;1.30;;;28.10;88.60;;;;;;5030926;28;20120;-77
2022/09/02 13:02:24;;;;;;;2.17;1.27;;;28.30;86.70;;;;;;5030438;28;20112;-76
2022/09/02 13:05:27;;;;;;;1.67;1.50;;;26.60;88.10;;;;;;5007001;28;20392;-76
2022/09/02 13:08:08;;;;;;;1.35;1.05;;;26.90;87.90;;;;;;5012117;28;20018;-77
2022/09/02 13:10:39;;;;;;;1.45;1.30;;;27.20;87.60;;;;;;5011465;28;20105;-77
2022/09/02 13:13:26;;;;;;;1.75;1.20;;;28.60;86.90;;;;;;5012776;28;20049;-77